createdAt,value
2022-10-29T00:02:22.199Z,74.51
2022-10-29T00:04:49.263Z,74.39
2022-10-29T00:07:16.409Z,74.45
2022-10-29T00:09:43.371Z,73.90
2022-10-29T00:12:10.332Z,73.41
2022-10-29T00:14:37.467Z,73.84
2022-10-29T00:17:04.769Z,74.05
2022-10-29T00:19:31.756Z,73.55
2022-10-29T00:21:58.719Z,73.95
2022-10-29T00:24:25.677Z,73.81
2022-10-29T00:26:52.657Z,73.39
2022-10-29T00:29:19.596Z,73.36
2022-10-29T00:31:46.656Z,73.65
2022-10-29T00:34:13.803Z,74.42
2022-10-29T00:36:40.867Z,73.58
2022-10-29T00:39:07.842Z,73.58
2022-10-29T00:41:34.809Z,73.60
2022-10-29T00:44:23.017Z,74.25
2022-10-29T00:47:11.382Z,74.49
2022-10-29T00:49:39.819Z,74.24
2022-10-29T00:52:08.004Z,74.11
2022-10-29T00:54:39.174Z,74.30
2022-10-29T00:57:24.514Z,74.32
2022-10-29T00:59:51.533Z,74.24
2022-10-29T01:02:19.019Z,74.46
2022-10-29T01:04:46.725Z,74.61
2022-10-29T01:07:13.700Z,74.72
2022-10-29T01:09:40.945Z,74.88
2022-10-29T01:12:07.912Z,74.91
2022-10-29T01:14:37.569Z,75.06
2022-10-29T01:17:38.750Z,74.96
2022-10-29T01:20:35.879Z,74.90
2022-10-29T01:23:36.078Z,75.08
2022-10-29T01:26:24.970Z,75.19
2022-10-29T01:29:22.515Z,75.11
2022-10-29T01:32:11.440Z,75.22
2022-10-29T01:34:57.742Z,75.07
2022-10-29T01:40:21.827Z,75.10
2022-10-29T01:43:04.567Z,74.57
2022-10-29T01:45:43.831Z,74.85
2022-10-29T01:48:22.884Z,74.91
2022-10-29T01:50:55.291Z,75.47
2022-10-29T01:53:23.180Z,75.61
2022-10-29T01:55:50.164Z,75.61
2022-10-29T02:01:07.479Z,75.85
2022-10-29T02:03:43.256Z,75.91
2022-10-29T02:06:31.099Z,75.70
2022-10-29T02:09:35.157Z,75.48
2022-10-29T02:12:23.169Z,75.59
2022-10-29T02:14:57.410Z,75.80
2022-10-29T02:17:25.581Z,76.15
2022-10-29T02:19:52.582Z,75.64
2022-10-29T02:22:19.610Z,75.93
2022-10-29T02:24:46.621Z,75.58
2022-10-29T02:27:16.661Z,75.87
2022-10-29T02:29:43.685Z,76.02
2022-10-29T02:32:10.603Z,75.94
2022-10-29T02:34:37.549Z,75.35
2022-10-29T02:37:04.521Z,76.18
2022-10-29T02:39:31.679Z,75.27
2022-10-29T02:41:58.792Z,76.35
2022-10-29T02:44:25.851Z,76.09
2022-10-29T02:46:52.781Z,75.94
2022-10-29T02:49:19.957Z,75.74
2022-10-29T02:51:47.102Z,75.80
2022-10-29T02:54:14.046Z,75.91
2022-10-29T02:56:40.999Z,75.78
2022-10-29T02:59:10.865Z,75.99
2022-10-29T03:01:39.111Z,75.93
2022-10-29T03:04:06.253Z,75.78
2022-10-29T03:06:33.249Z,75.87
2022-10-29T03:09:00.171Z,75.76
2022-10-29T03:11:27.092Z,76.15
2022-10-29T03:13:54.034Z,76.07
2022-10-29T03:16:20.980Z,76.16
2022-10-29T03:18:47.966Z,76.12
2022-10-29T03:21:14.898Z,75.92
2022-10-29T03:23:41.913Z,75.90
2022-10-29T03:26:11.095Z,75.81
2022-10-29T03:28:37.950Z,75.88
2022-10-29T03:31:05.327Z,76.09
2022-10-29T03:33:32.251Z,75.81
2022-10-29T03:36:01.001Z,76.12
2022-10-29T03:38:29.704Z,75.98
2022-10-29T03:40:56.717Z,75.94
2022-10-29T03:43:23.823Z,75.62
2022-10-29T03:45:54.759Z,75.88
2022-10-29T03:48:23.655Z,75.70
2022-10-29T03:50:58.931Z,75.63
2022-10-29T03:53:27.705Z,75.77
2022-10-29T03:55:55.938Z,75.59
2022-10-29T03:58:23.649Z,75.66
2022-10-29T04:00:58.493Z,75.27
2022-10-29T04:03:27.018Z,75.26
2022-10-29T04:05:54.126Z,75.20
2022-10-29T04:08:21.300Z,75.67
2022-10-29T04:10:49.693Z,75.43
2022-10-29T04:13:17.426Z,75.01
2022-10-29T04:15:44.525Z,75.18
2022-10-29T04:18:12.793Z,75.28
2022-10-29T04:21:05.740Z,75.54
2022-10-29T04:29:03.153Z,75.06
2022-10-29T04:31:30.127Z,75.69
2022-10-29T04:33:57.491Z,75.12
2022-10-29T04:36:24.686Z,74.79
2022-10-29T04:38:51.656Z,75.32
2022-10-29T04:41:18.596Z,74.96
2022-10-29T04:43:45.569Z,75.20
2022-10-29T04:46:12.981Z,75.22
2022-10-29T04:48:40.048Z,74.33
2022-10-29T04:51:07.097Z,74.59
2022-10-29T04:53:34.067Z,75.02
2022-10-29T04:56:02.236Z,74.80
2022-10-29T04:58:29.374Z,75.28
2022-10-29T05:01:02.760Z,74.42
2022-10-29T05:03:29.909Z,75.27
2022-10-29T05:05:57.154Z,75.21
2022-10-29T05:08:24.354Z,74.95
2022-10-29T05:10:51.274Z,74.75
2022-10-29T05:13:18.097Z,74.72
2022-10-29T05:15:53.201Z,74.94
2022-10-29T05:18:20.861Z,75.00
2022-10-29T05:20:47.855Z,74.59
2022-10-29T05:23:15.488Z,74.58
2022-10-29T05:25:42.544Z,74.70
2022-10-29T05:28:14.546Z,74.81
2022-10-29T05:30:42.164Z,74.83
2022-10-29T05:33:10.112Z,74.28
2022-10-29T05:35:37.539Z,74.59
2022-10-29T05:38:05.456Z,74.33
2022-10-29T05:40:32.873Z,74.68
2022-10-29T05:43:00.689Z,74.89
2022-10-29T05:45:27.839Z,74.68
2022-10-29T05:48:02.486Z,73.68
2022-10-29T05:50:31.204Z,74.45
2022-10-29T05:53:04.364Z,73.57
2022-10-29T05:55:33.792Z,74.14
2022-10-29T05:58:06.195Z,73.39
2022-10-29T06:00:36.471Z,74.42
2022-10-29T06:03:03.578Z,73.84
2022-10-29T06:05:30.861Z,74.31
2022-10-29T06:07:59.296Z,74.39
2022-10-29T06:10:28.531Z,73.96
2022-10-29T06:12:55.558Z,73.64
2022-10-29T06:15:23.362Z,73.83
2022-10-29T06:17:51.112Z,73.93
2022-10-29T06:20:21.337Z,73.75
2022-10-29T06:22:56.186Z,73.44
2022-10-29T06:25:23.495Z,73.59
2022-10-29T06:27:59.186Z,73.32
2022-10-29T06:30:26.252Z,73.67
2022-10-29T06:32:53.286Z,73.56
2022-10-29T06:35:20.505Z,73.21
2022-10-29T06:37:47.494Z,73.33
2022-10-29T06:40:14.469Z,73.62
2022-10-29T06:42:41.793Z,73.21
2022-10-29T06:45:09.177Z,73.27
2022-10-29T06:47:40.696Z,73.51
2022-10-29T06:50:09.284Z,73.48
2022-10-29T06:52:36.684Z,73.69
2022-10-29T06:55:05.269Z,73.59
2022-10-29T06:57:32.865Z,73.68
2022-10-29T07:00:03.848Z,73.87
2022-10-29T07:02:36.661Z,73.89
2022-10-29T07:05:03.758Z,73.36
2022-10-29T07:07:30.690Z,73.72
2022-10-29T07:09:58.574Z,72.68
2022-10-29T07:12:25.508Z,73.31
2022-10-29T07:14:52.419Z,73.07
2022-10-29T07:17:19.363Z,73.31
2022-10-29T07:19:46.475Z,72.56
2022-10-29T07:22:13.547Z,72.64
2022-10-29T07:24:40.539Z,71.87
2022-10-29T07:27:07.676Z,72.01
2022-10-29T07:29:35.587Z,71.93
2022-10-29T07:32:02.533Z,71.35
2022-10-29T07:34:29.502Z,71.33
2022-10-29T07:36:56.434Z,71.42
2022-10-29T07:39:23.574Z,71.01
2022-10-29T07:41:51.406Z,71.08
2022-10-29T07:44:19.922Z,70.03
2022-10-29T07:46:46.883Z,70.38
2022-10-29T07:49:13.989Z,70.35
2022-10-29T07:51:40.961Z,70.31
2022-10-29T07:54:12.252Z,69.32
2022-10-29T07:56:45.100Z,69.25
2022-10-29T07:59:15.999Z,69.18
2022-10-29T08:01:43.220Z,68.51
2022-10-29T08:04:10.425Z,68.35
2022-10-29T08:06:37.653Z,68.02
2022-10-29T08:09:04.607Z,67.85
2022-10-29T08:11:32.915Z,68.05
2022-10-29T08:14:00.121Z,67.38
2022-10-29T08:16:27.135Z,66.46
2022-10-29T08:18:54.048Z,66.67
2022-10-29T08:21:21.203Z,67.01
2022-10-29T08:23:48.468Z,65.85
2022-10-29T08:26:15.490Z,66.55
2022-10-29T08:28:43.340Z,66.50
2022-10-29T08:31:10.426Z,66.39
2022-10-29T08:33:37.390Z,65.56
2022-10-29T08:36:04.697Z,66.38
2022-10-29T08:38:32.003Z,65.30
2022-10-29T08:41:35.083Z,65.76
2022-10-29T08:44:46.574Z,65.31
2022-10-29T08:47:21.353Z,65.95
2022-10-29T08:50:19.797Z,66.34
2022-10-29T08:52:53.231Z,65.91
2022-10-29T08:55:34.410Z,65.62
2022-10-29T08:58:12.845Z,65.93
2022-10-29T09:00:42.911Z,65.50
2022-10-29T09:03:12.579Z,66.04
2022-10-29T09:06:04.957Z,65.17
2022-10-29T09:08:40.422Z,65.16
2022-10-29T09:11:41.404Z,64.24
2022-10-29T09:14:18.491Z,64.41
2022-10-29T09:17:03.401Z,63.72
2022-10-29T09:19:39.959Z,64.96
2022-10-29T09:22:37.365Z,64.48
2022-10-29T09:25:11.917Z,65.11
2022-10-29T09:27:54.398Z,65.15
2022-10-29T09:30:22.300Z,64.95
2022-10-29T09:33:01.168Z,64.88
2022-10-29T09:35:39.609Z,64.91
2022-10-29T09:38:20.940Z,64.55
2022-10-29T09:40:47.947Z,64.88
2022-10-29T09:43:26.918Z,64.67
2022-10-29T09:46:29.091Z,64.79
2022-10-29T09:49:02.031Z,64.84
2022-10-29T09:51:42.915Z,64.45
2022-10-29T09:54:09.795Z,65.15
2022-10-29T09:56:41.934Z,65.90
2022-10-29T09:59:11.920Z,64.95
2022-10-29T10:01:39.868Z,64.49
2022-10-29T10:04:19.785Z,65.12
2022-10-29T10:07:09.702Z,64.52
2022-10-29T10:09:57.695Z,64.28
2022-10-29T10:12:28.184Z,63.89
2022-10-29T10:15:18.137Z,63.26
2022-10-29T10:18:15.879Z,63.29
2022-10-29T10:20:49.543Z,63.64
2022-10-29T10:23:28.200Z,63.98
2022-10-29T10:26:02.357Z,64.05
2022-10-29T10:28:36.259Z,64.02
2022-10-29T10:31:16.359Z,63.98
2022-10-29T10:33:54.961Z,64.49
2022-10-29T10:36:26.269Z,64.74
2022-10-29T10:38:56.645Z,64.56
2022-10-29T10:41:30.526Z,64.10
2022-10-29T10:44:02.703Z,64.91
2022-10-29T10:46:39.711Z,64.55
2022-10-29T10:49:14.495Z,65.39
2022-10-29T10:51:49.059Z,64.95
2022-10-29T10:54:34.029Z,65.03
2022-10-29T10:57:13.105Z,65.42
2022-10-29T10:59:43.195Z,66.50
2022-10-29T11:02:21.333Z,66.80
2022-10-29T11:04:56.488Z,67.51
2022-10-29T11:07:27.521Z,67.93
2022-10-29T11:09:57.398Z,68.60
2022-10-29T11:12:40.594Z,69.18
2022-10-29T11:15:13.788Z,69.63
2022-10-29T11:17:57.214Z,69.78
2022-10-29T11:20:28.968Z,70.10
2022-10-29T11:23:23.405Z,70.26
2022-10-29T11:26:19.564Z,71.15
2022-10-29T11:28:52.765Z,71.04
2022-10-29T11:32:01.250Z,70.87
2022-10-29T11:34:40.059Z,70.84
2022-10-29T11:37:15.104Z,70.68
2022-10-29T11:39:51.637Z,70.42
2022-10-29T11:42:18.630Z,69.75
2022-10-29T11:44:45.758Z,70.09
2022-10-29T11:47:38.015Z,69.74
2022-10-29T11:50:23.335Z,69.41
2022-10-29T11:53:21.253Z,69.23
2022-10-29T11:56:23.124Z,69.58
2022-10-29T11:58:58.495Z,69.84
2022-10-29T12:01:31.618Z,69.96
2022-10-29T12:04:24.182Z,69.61
2022-10-29T12:07:25.391Z,69.03
2022-10-29T12:09:52.372Z,68.87
2022-10-29T12:12:30.817Z,68.90
2022-10-29T12:15:27.580Z,68.94
2022-10-29T12:18:26.327Z,67.84
2022-10-29T12:21:06.653Z,68.14
2022-10-29T12:24:03.073Z,67.79
2022-10-29T12:26:45.495Z,67.52
2022-10-29T12:29:40.413Z,67.87
2022-10-29T12:32:16.353Z,67.43
2022-10-29T12:35:03.707Z,67.73
2022-10-29T12:37:50.505Z,67.64
2022-10-29T12:40:25.840Z,67.64
2022-10-29T12:42:54.225Z,67.35
2022-10-29T12:45:59.607Z,67.28
2022-10-29T12:49:05.190Z,67.02
2022-10-29T12:51:40.662Z,67.05
2022-10-29T12:54:32.784Z,66.90
2022-10-29T12:57:15.064Z,66.98
2022-10-29T12:59:43.429Z,67.39
2022-10-29T13:02:45.301Z,67.05
2022-10-29T13:05:14.379Z,67.08
2022-10-29T13:08:04.211Z,66.65
2022-10-29T13:10:34.151Z,67.13
2022-10-29T13:13:16.385Z,66.36
2022-10-29T13:15:43.481Z,66.70
2022-10-29T13:18:13.544Z,66.18
2022-10-29T13:20:43.513Z,66.09
2022-10-29T13:23:22.617Z,66.17
2022-10-29T13:25:57.065Z,66.43
2022-10-29T13:28:24.077Z,66.96
2022-10-29T13:30:53.848Z,67.00
2022-10-29T13:33:26.699Z,66.93
2022-10-29T13:36:09.383Z,67.12
2022-10-29T13:39:05.856Z,67.47
2022-10-29T13:41:43.135Z,67.70
2022-10-29T13:44:28.219Z,67.58
2022-10-29T13:46:57.828Z,68.12
2022-10-29T13:49:35.188Z,68.05
2022-10-29T13:52:06.825Z,68.21
2022-10-29T13:54:48.098Z,68.65
2022-10-29T13:57:42.879Z,68.59
2022-10-29T14:00:12.946Z,68.26
2022-10-29T14:02:42.781Z,68.63
2022-10-29T14:05:09.791Z,68.42
2022-10-29T14:07:51.908Z,68.46
2022-10-29T14:10:24.578Z,68.73
2022-10-29T14:12:56.885Z,68.78
2022-10-29T14:15:24.087Z,69.19
2022-10-29T14:17:50.957Z,69.24
2022-10-29T14:20:25.840Z,68.86
2022-10-29T14:22:52.944Z,68.66
2022-10-29T14:25:36.727Z,68.97
2022-10-29T14:28:10.730Z,69.12
2022-10-29T14:30:37.878Z,68.80
2022-10-29T14:33:29.353Z,68.85
2022-10-29T14:36:06.365Z,69.20
2022-10-29T14:38:41.575Z,69.17
2022-10-29T14:41:09.489Z,69.56
2022-10-29T14:43:37.412Z,69.31
2022-10-29T14:46:14.715Z,68.98
2022-10-29T14:48:52.017Z,68.80
2022-10-29T14:51:20.834Z,69.01
2022-10-29T14:53:55.167Z,69.11
2022-10-29T14:56:26.764Z,69.96
2022-10-29T14:58:53.933Z,69.29
2022-10-29T15:01:21.329Z,70.13
2022-10-29T15:03:48.572Z,70.14
2022-10-29T15:06:20.865Z,70.14
2022-10-29T15:09:20.575Z,70.98
2022-10-29T15:11:58.793Z,71.02
2022-10-29T15:14:34.412Z,70.70
2022-10-29T15:17:02.003Z,71.05
2022-10-29T15:19:29.455Z,71.33
2022-10-29T15:21:56.544Z,71.42
2022-10-29T15:24:25.153Z,71.81
2022-10-29T15:26:57.215Z,71.03
2022-10-29T15:29:33.631Z,71.12
2022-10-29T15:32:02.085Z,71.40
2022-10-29T15:34:35.699Z,71.79
2022-10-29T15:37:23.750Z,71.19
2022-10-29T15:39:59.508Z,71.59
2022-10-29T15:42:35.720Z,71.60
2022-10-29T15:45:08.943Z,71.71
2022-10-29T15:47:44.133Z,71.39
2022-10-29T15:50:13.862Z,71.72
2022-10-29T15:52:44.379Z,71.49
2022-10-29T15:55:26.015Z,71.66
2022-10-29T15:57:54.590Z,71.73
2022-10-29T16:00:23.923Z,71.39
2022-10-29T16:02:51.919Z,71.49
2022-10-29T16:05:19.380Z,71.90
2022-10-29T16:07:47.829Z,71.90
2022-10-29T16:10:22.077Z,72.14
2022-10-29T16:12:50.513Z,72.10
2022-10-29T16:15:19.685Z,72.35
2022-10-29T16:17:47.671Z,72.60
2022-10-29T16:20:17.454Z,72.61
2022-10-29T16:22:45.784Z,72.84
2022-10-29T16:25:29.015Z,72.98
2022-10-29T16:27:56.577Z,72.64
2022-10-29T16:30:24.114Z,73.15
2022-10-29T16:32:52.727Z,73.24
2022-10-29T16:35:25.361Z,73.53
2022-10-29T16:37:54.027Z,73.46
2022-10-29T16:40:23.979Z,73.44
2022-10-29T16:42:51.426Z,73.53
2022-10-29T16:45:24.905Z,73.67
2022-10-29T16:47:52.626Z,73.81
2022-10-29T16:50:28.393Z,73.86
2022-10-29T16:53:02.525Z,74.00
2022-10-29T16:55:30.642Z,73.99
2022-10-29T16:57:58.038Z,73.60
2022-10-29T17:00:26.392Z,74.23
2022-10-29T17:02:53.495Z,73.91
2022-10-29T17:05:23.735Z,74.57
2022-10-29T17:07:54.573Z,75.02
2022-10-29T17:10:21.768Z,74.96
2022-10-29T17:12:49.245Z,74.85
2022-10-29T17:15:16.368Z,74.90
2022-10-29T17:17:46.321Z,75.18
2022-10-29T17:20:13.775Z,75.12
2022-10-29T17:22:41.096Z,75.23
2022-10-29T17:25:08.338Z,75.57
2022-10-29T17:27:37.867Z,75.23
2022-10-29T17:30:05.319Z,75.82
2022-10-29T17:32:32.978Z,76.38
2022-10-29T17:35:00.640Z,76.08
2022-10-29T17:37:28.581Z,76.14
2022-10-29T17:39:55.597Z,76.29
2022-10-29T17:42:22.559Z,75.97
2022-10-29T17:44:49.485Z,76.52
2022-10-29T17:47:16.502Z,76.71
2022-10-29T17:49:46.343Z,76.48
2022-10-29T17:52:13.338Z,76.42
2022-10-29T17:54:40.271Z,76.37
2022-10-29T17:57:07.598Z,76.61
2022-10-29T17:59:34.585Z,76.47
2022-10-29T18:02:01.593Z,75.86
2022-10-29T18:04:28.622Z,76.47
2022-10-29T18:06:56.530Z,76.56
2022-10-29T18:09:23.484Z,76.72
2022-10-29T18:11:50.772Z,76.63
2022-10-29T18:14:18.233Z,76.57
2022-10-29T18:16:46.089Z,76.95
2022-10-29T18:19:13.096Z,77.06
2022-10-29T18:21:40.052Z,77.24
2022-10-29T18:24:07.599Z,77.60
2022-10-29T18:26:36.451Z,77.26
2022-10-29T18:29:09.115Z,77.59
2022-10-29T18:31:37.895Z,77.66
2022-10-29T18:34:07.858Z,77.69
2022-10-29T18:36:39.261Z,77.65
2022-10-29T18:39:06.765Z,77.72
2022-10-29T18:41:34.766Z,77.80
2022-10-29T18:44:01.961Z,78.06
2022-10-29T18:46:28.908Z,77.63
2022-10-29T18:48:55.878Z,77.73
2022-10-29T18:51:28.480Z,77.91
2022-10-29T18:53:58.246Z,78.15
2022-10-29T18:56:26.910Z,78.51
2022-10-29T18:58:55.911Z,78.27
2022-10-29T19:01:29.112Z,77.88
2022-10-29T19:03:58.412Z,78.75
2022-10-29T19:06:27.787Z,78.62
2022-10-29T19:08:55.666Z,78.34
2022-10-29T19:11:25.831Z,78.30
2022-10-29T19:14:02.833Z,78.11
2022-10-29T19:16:31.372Z,77.91
2022-10-29T19:19:00.850Z,77.87
2022-10-29T19:21:28.163Z,78.29
2022-10-29T19:23:56.582Z,77.87
2022-10-29T19:26:24.534Z,77.96
2022-10-29T19:28:51.476Z,77.50
2022-10-29T19:31:24.210Z,77.32
2022-10-29T19:33:52.913Z,77.25
2022-10-29T19:36:21.694Z,77.29
2022-10-29T19:38:49.167Z,76.93
2022-10-29T19:41:18.472Z,76.69
2022-10-29T19:43:45.929Z,76.93
2022-10-29T19:46:19.759Z,76.66
2022-10-29T19:48:51.475Z,76.51
2022-10-29T19:51:20.030Z,76.36
2022-10-29T19:53:47.308Z,76.57
2022-10-29T19:56:16.141Z,76.36
2022-10-29T19:58:43.351Z,76.58
2022-10-29T20:01:18.818Z,76.42
2022-10-29T20:03:46.740Z,76.21
2022-10-29T20:06:14.941Z,76.73
2022-10-29T20:08:42.002Z,76.45
2022-10-29T20:11:09.245Z,75.65
2022-10-29T20:13:36.886Z,76.48
2022-10-29T20:16:17.434Z,76.53
2022-10-29T20:18:44.636Z,76.63
2022-10-29T20:21:12.470Z,76.56
2022-10-29T20:23:39.836Z,76.56
2022-10-29T20:26:07.534Z,76.90
2022-10-29T20:28:35.093Z,76.87
2022-10-29T20:31:24.734Z,76.83
2022-10-29T20:33:54.868Z,77.38
2022-10-29T20:36:23.224Z,76.80
2022-10-29T20:38:56.619Z,76.98
2022-10-29T20:41:24.227Z,76.87
2022-10-29T20:43:56.071Z,77.52
2022-10-29T20:46:24.249Z,77.33
2022-10-29T20:48:51.198Z,77.17
2022-10-29T20:51:18.165Z,77.07
2022-10-29T20:53:45.473Z,77.23
2022-10-29T20:56:15.974Z,77.29
2022-10-29T20:58:43.711Z,76.90
2022-10-29T21:01:13.885Z,77.35
2022-10-29T21:03:41.475Z,76.55
2022-10-29T21:06:15.673Z,77.51
2022-10-29T21:08:43.996Z,77.14
2022-10-29T21:11:12.854Z,77.38
2022-10-29T21:13:39.949Z,78.36
2022-10-29T21:16:20.158Z,78.18
2022-10-29T21:18:50.707Z,78.18
2022-10-29T21:21:18.519Z,77.75
2022-10-29T21:23:46.016Z,77.51
2022-10-29T21:26:15.741Z,77.69
2022-10-29T21:28:43.173Z,77.87
2022-10-29T21:31:10.279Z,77.48
2022-10-29T21:33:37.955Z,77.45
2022-10-29T21:36:05.695Z,77.97
2022-10-29T21:38:33.721Z,78.33
2022-10-29T21:41:02.547Z,77.54
2022-10-29T21:43:30.014Z,77.05
2022-10-29T21:45:57.258Z,77.20
2022-10-29T21:48:28.448Z,77.99
2022-10-29T21:51:00.489Z,77.69
2022-10-29T21:53:27.480Z,77.57
2022-10-29T21:56:01.893Z,77.31
2022-10-29T21:58:28.934Z,77.56
2022-10-29T22:01:06.736Z,78.33
2022-10-29T22:03:35.808Z,78.23
2022-10-29T22:06:07.973Z,78.02
2022-10-29T22:08:35.926Z,78.25
2022-10-29T22:11:03.541Z,78.17
2022-10-29T22:13:32.042Z,78.10
2022-10-29T22:15:59.264Z,78.04
2022-10-29T22:18:26.839Z,77.94
2022-10-29T22:21:04.958Z,78.43
2022-10-29T22:23:31.852Z,78.54
2022-10-29T22:25:58.755Z,78.31
2022-10-29T22:28:25.724Z,78.59
2022-10-29T22:31:00.495Z,78.32
2022-10-29T22:33:28.573Z,78.60
2022-10-29T22:35:56.028Z,78.93
2022-10-29T22:38:22.972Z,78.46
2022-10-29T22:40:50.314Z,78.88
2022-10-29T22:43:17.305Z,78.26
2022-10-29T22:45:46.245Z,78.40
2022-10-29T22:48:15.233Z,78.60
2022-10-29T22:50:42.197Z,78.48
2022-10-29T22:53:09.130Z,77.98
2022-10-29T22:55:36.052Z,78.14
2022-10-29T22:58:03.085Z,78.02
2022-10-29T23:00:29.997Z,78.03
2022-10-29T23:02:57.237Z,77.97
2022-10-29T23:05:24.287Z,78.31
2022-10-29T23:07:51.244Z,78.29
2022-10-29T23:10:18.329Z,78.17
2022-10-29T23:12:45.252Z,78.56
2022-10-29T23:15:12.203Z,78.48
2022-10-29T23:17:39.526Z,78.15
2022-10-29T23:20:06.884Z,77.79
2022-10-29T23:22:33.829Z,77.58
2022-10-29T23:25:00.750Z,77.23
2022-10-29T23:27:27.821Z,78.10
2022-10-29T23:29:54.762Z,77.68
2022-10-29T23:32:21.695Z,78.14
2022-10-29T23:34:48.695Z,78.50
2022-10-29T23:37:15.592Z,78.04
2022-10-29T23:39:42.522Z,78.55
2022-10-29T23:42:09.441Z,78.31
2022-10-29T23:44:36.386Z,78.43
2022-10-29T23:47:03.332Z,78.40
2022-10-29T23:49:30.237Z,78.88
2022-10-29T23:51:57.188Z,78.70
2022-10-29T23:54:24.411Z,78.39
2022-10-29T23:56:51.366Z,78.19
2022-10-29T23:59:18.384Z,78.48
